Time;durP1;ratioP1;P1;durP2;ratioP2;P2;SDS_P1;SDS_P2;PMS_P1;PMS_P2;Temp;Humidity;BMP_temperature;BMP_pressure;BME280_temperature;BME280_humidity;BME280_pressure;Samples;Min_cycle;Max_cycle;Signal;HPM_P1;HPM_P2
2024/01/24 00:02:09;;;;;;;;;;;;;;;5.66;62.48;101834.28;5368238;32;35713;-76
2024/01/24 00:05:11;;;;;;;;;;;;;;;5.77;62.10;101804.75;5373542;32;34299;-71
2024/01/24 00:08:13;;;;;;;;;;;;;;;5.55;62.36;101827.28;5366752;32;35245;-70
2024/01/24 00:11:15;;;;;;;;;;;;;;;5.55;62.67;101840.34;5368725;32;34840;-77
2024/01/24 00:14:17;;;;;;;;;;;;;;;5.36;62.90;101842.84;5370236;32;34545;-77
2024/01/24 00:17:19;;;;;;;;;;;;;;;5.35;62.66;101845.44;5355717;32;34227;-77
2024/01/24 00:20:21;;;;;;;;;;;;;;;5.24;62.81;101852.31;5373845;32;34689;-77
2024/01/24 00:23:24;;;;;;;;;;;;;;;5.55;62.32;101856.84;5364084;32;35413;-70
2024/01/24 00:26:27;;;;;;;;;;;;;;;5.75;61.81;101854.34;5372112;32;34780;-77
2024/01/24 00:29:29;;;;;;;;;;;;;;;5.44;62.72;101864.59;5373448;32;34983;-76
2024/01/24 00:32:32;;;;;;;;;;;;;;;5.66;62.34;101856.87;5370315;32;35797;-77
2024/01/24 00:36:01;;;;;;;;;;;;;;;;;;;;;
2024/01/24 00:39:07;;;;;;;;;;;;;;;5.62;62.23;101842.97;5366776;32;33214;-74
2024/01/24 00:42:09;;;;;;;;;;;;;;;5.69;61.99;101843.87;5359541;32;34854;-70
2024/01/24 00:45:12;;;;;;;;;;;;;;;5.74;61.83;101830.84;5376173;32;35504;-77
2024/01/24 00:48:14;;;;;;;;;;;;;;;5.59;62.34;101831.62;5372260;32;34820;-70
2024/01/24 00:51:16;;;;;;;;;;;;;;;5.40;62.96;101834.16;5357225;32;34390;-70
2024/01/24 00:54:19;;;;;;;;;;;;;;;4.84;64.89;101849.44;5371302;32;33624;-77
2024/01/24 00:57:21;;;;;;;;;;;;;;;5.09;64.10;101860.94;5371955;32;35737;-70
2024/01/24 01:00:23;;;;;;;;;;;;;;;5.69;62.25;101844.75;5371178;32;34593;-76
2024/01/24 01:03:25;;;;;;;;;;;;;;;5.89;61.40;101828.28;5374913;32;35854;-70
2024/01/24 01:06:27;;;;;;;;;;;;;;;5.86;61.36;101831.78;5372890;32;35459;-76
2024/01/24 01:09:30;;;;;;;;;;;;;;;5.51;62.44;101836.81;5359420;32;35332;-76
2024/01/24 01:12:32;;;;;;;;;;;;;;;6.03;61.04;101836.19;5369164;32;36367;-75
2024/01/24 01:15:34;;;;;;;;;;;;;;;5.98;60.96;101833.56;5370562;32;35430;-70
2024/01/24 01:18:37;;;;;;;;;;;;;;;5.51;61.80;101823.78;5358848;32;35746;-76
2024/01/24 01:21:40;;;;;;;;;;;;;;;5.39;61.95;101806.34;5366457;32;35316;-77
2024/01/24 01:24:42;;;;;;;;;;;;;;;5.38;61.86;101799.37;5377372;32;34364;-71
2024/01/24 01:27:44;;;;;;;;;;;;;;;5.61;61.65;101788.19;5353675;32;34946;-76
2024/01/24 01:30:47;;;;;;;;;;;;;;;5.75;61.09;101777.81;5359621;32;35865;-75
2024/01/24 01:33:49;;;;;;;;;;;;;;;5.79;60.52;101775.19;5366762;32;34214;-75
2024/01/24 01:36:51;;;;;;;;;;;;;;;5.61;60.22;101793.41;5355495;32;35606;-71
2024/01/24 01:39:54;;;;;;;;;;;;;;;5.39;60.88;101795.03;5372854;32;35071;-71
2024/01/24 01:42:56;;;;;;;;;;;;;;;4.51;63.63;101785.81;5366837;32;34773;-71
2024/01/24 01:46:00;;;;;;;;;;;;;;;5.40;62.29;101771.56;5374102;32;36616;-76
2024/01/24 01:49:02;;;;;;;;;;;;;;;5.32;62.08;101759.37;5357644;32;34372;-70
2024/01/24 01:52:05;;;;;;;;;;;;;;;5.22;62.23;101755.87;5363763;32;34276;-77
2024/01/24 01:55:07;;;;;;;;;;;;;;;5.19;62.28;101762.81;5369925;32;34643;-71
2024/01/24 01:58:09;;;;;;;;;;;;;;;5.31;61.05;101760.25;5369632;32;34247;-70
2024/01/24 02:01:11;;;;;;;;;;;;;;;5.03;61.78;101754.03;5349201;32;848884;-76
2024/01/24 02:04:13;;;;;;;;;;;;;;;5.05;61.62;101749.69;5354850;32;35020;-70
2024/01/24 02:07:16;;;;;;;;;;;;;;;4.96;61.86;101758.34;5358032;32;36016;-77
2024/01/24 02:10:18;;;;;;;;;;;;;;;4.91;62.07;101748.75;5356913;32;34856;-79
2024/01/24 02:13:20;;;;;;;;;;;;;;;4.79;62.57;101744.34;5375368;32;34943;-76
2024/01/24 02:16:22;;;;;;;;;;;;;;;4.78;62.78;101727.84;5356199;32;34709;-77
2024/01/24 02:19:25;;;;;;;;;;;;;;;4.03;64.97;101742.88;5370147;32;35635;-76
2024/01/24 02:22:28;;;;;;;;;;;;;;;4.04;64.43;101744.63;5370706;32;34647;-71
2024/01/24 02:25:30;;;;;;;;;;;;;;;3.89;64.75;101738.41;5368458;32;34316;-74
2024/01/24 02:28:32;;;;;;;;;;;;;;;4.38;64.35;101731.91;5369642;32;34535;-78
2024/01/24 02:31:34;;;;;;;;;;;;;;;3.55;66.47;101737.19;5376284;32;35075;-77
2024/01/24 02:34:36;;;;;;;;;;;;;;;4.24;65.74;101707.50;5360227;32;34757;-72
2024/01/24 02:37:39;;;;;;;;;;;;;;;4.62;64.01;101726.00;5348002;32;35014;-75
2024/01/24 02:40:41;;;;;;;;;;;;;;;4.26;65.06;101737.88;5369552;32;35147;-71
2024/01/24 02:43:43;;;;;;;;;;;;;;;4.11;65.96;101731.66;5357422;32;34262;-77
2024/01/24 02:46:45;;;;;;;;;;;;;;;4.48;64.80;101731.09;5355844;32;35577;-77
2024/01/24 02:49:48;;;;;;;;;;;;;;;3.75;67.13;101723.53;5373535;32;34412;-72
2024/01/24 02:52:50;;;;;;;;;;;;;;;4.30;66.25;101718.81;5357648;32;34636;-77
2024/01/24 02:55:52;;;;;;;;;;;;;;;3.82;67.66;101723.59;5370327;32;34475;-75
2024/01/24 02:58:55;;;;;;;;;;;;;;;4.26;66.80;101722.28;5356497;32;34954;-77
2024/01/24 03:01:57;;;;;;;;;;;;;;;4.02;67.59;101715.13;5368652;32;35001;-76
2024/01/24 03:04:59;;;;;;;;;;;;;;;4.44;66.68;101711.09;5376038;32;34232;-76
2024/01/24 03:08:02;;;;;;;;;;;;;;;4.48;66.10;101697.25;5367386;32;35725;-77
2024/01/24 03:11:04;;;;;;;;;;;;;;;5.10;64.18;101680.25;5377298;32;34873;-77
2024/01/24 03:14:06;;;;;;;;;;;;;;;5.08;63.68;101653.28;5373812;32;34783;-76
2024/01/24 03:17:08;;;;;;;;;;;;;;;5.18;63.50;101664.63;5374525;32;35493;-74
2024/01/24 03:20:12;;;;;;;;;;;;;;;4.91;64.21;101657.56;5360807;32;34389;-76
2024/01/24 03:23:16;;;;;;;;;;;;;;;4.66;64.67;101653.97;5368160;32;34607;-70
2024/01/24 03:26:18;;;;;;;;;;;;;;;3.96;67.56;101655.22;5371717;32;35003;-78
2024/01/24 03:29:20;;;;;;;;;;;;;;;4.45;66.74;101642.59;5370314;32;34346;-70
2024/01/24 03:32:23;;;;;;;;;;;;;;;4.84;64.95;101631.50;5359825;32;34883;-70
2024/01/24 03:35:25;;;;;;;;;;;;;;;4.31;65.66;101639.87;5370420;32;34593;-76
2024/01/24 03:38:27;;;;;;;;;;;;;;;4.27;65.44;101625.12;5371985;32;35533;-77
2024/01/24 03:41:29;;;;;;;;;;;;;;;4.28;66.42;101624.25;5372208;32;35344;-70
2024/01/24 03:44:32;;;;;;;;;;;;;;;3.53;69.61;101623.66;5357003;32;35459;-76
2024/01/24 03:47:34;;;;;;;;;;;;;;;3.84;67.51;101618.72;5374212;32;34135;-71
2024/01/24 03:50:36;;;;;;;;;;;;;;;3.89;66.93;101626.56;5370363;32;34126;-76
2024/01/24 03:53:38;;;;;;;;;;;;;;;4.75;63.41;101613.22;5359776;32;34376;-76
2024/01/24 03:56:41;;;;;;;;;;;;;;;4.48;64.38;101623.50;5368189;32;35364;-70
2024/01/24 03:59:43;;;;;;;;;;;;;;;4.42;64.87;101628.66;5357106;32;35000;-70
2024/01/24 04:02:45;;;;;;;;;;;;;;;4.27;65.63;101624.25;5371173;32;35040;-77
2024/01/24 04:05:47;;;;;;;;;;;;;;;4.04;67.19;101621.47;5366632;32;35492;-70
2024/01/24 04:08:49;;;;;;;;;;;;;;;4.17;66.61;101612.87;5359542;32;35030;-75
2024/01/24 04:11:52;;;;;;;;;;;;;;;4.68;65.22;101614.03;5369745;32;34578;-70
2024/01/24 04:14:54;;;;;;;;;;;;;;;5.03;62.88;101619.41;5358899;32;34559;-77
2024/01/24 04:18:03;;;;;;;;;;;;;;;4.63;64.06;101614.00;5361456;32;34980;-76
2024/01/24 04:21:14;;;;;;;;;;;;;;;4.58;64.42;101620.97;5360466;32;37677;-70
2024/01/24 04:24:16;;;;;;;;;;;;;;;4.27;65.57;101613.84;5348995;32;35415;-70
2024/01/24 04:27:18;;;;;;;;;;;;;;;4.07;66.26;101611.09;5361024;32;34449;-71
2024/01/24 04:30:20;;;;;;;;;;;;;;;3.86;67.26;101616.13;5364961;32;34744;-71
2024/01/24 04:33:22;;;;;;;;;;;;;;;3.70;67.37;101622.94;5362424;32;34397;-70
2024/01/24 04:36:25;;;;;;;;;;;;;;;3.61;67.95;101605.53;5367234;32;34886;-70
2024/01/24 04:39:27;;;;;;;;;;;;;;;3.78;67.54;101626.47;5349064;32;34844;-70
2024/01/24 04:42:29;;;;;;;;;;;;;;;3.96;67.08;101620.56;5349995;32;35883;-78
2024/01/24 04:45:32;;;;;;;;;;;;;;;4.17;66.82;101610.28;5364818;32;33835;-71
2024/01/24 04:48:34;;;;;;;;;;;;;;;4.50;65.36;101611.34;5360921;32;34376;-71
2024/01/24 04:51:36;;;;;;;;;;;;;;;4.68;64.45;101614.03;5347445;32;35230;-76
2024/01/24 04:54:38;;;;;;;;;;;;;;;4.77;64.07;101606.28;5361780;32;35881;-70
2024/01/24 04:57:41;;;;;;;;;;;;;;;4.60;65.15;101613.16;5352216;32;34904;-75
2024/01/24 05:00:43;;;;;;;;;;;;;;;4.56;65.70;101606.16;5356463;32;34829;-70
2024/01/24 05:03:45;;;;;;;;;;;;;;;4.72;64.46;101601.91;5361151;32;35568;-75
2024/01/24 05:06:48;;;;;;;;;;;;;;;5.27;62.91;101594.25;5365753;32;34923;-72
2024/01/24 05:09:51;;;;;;;;;;;;;;;5.48;61.96;101578.66;5349048;32;35038;-71
2024/01/24 05:12:53;;;;;;;;;;;;;;;5.53;61.57;101581.25;5363673;32;35204;-77
2024/01/24 05:15:56;;;;;;;;;;;;;;;6.03;59.66;101577.78;5362204;32;35166;-72
2024/01/24 05:18:58;;;;;;;;;;;;;;;5.65;60.19;101589.09;5364046;32;34969;-77
2024/01/24 05:22:00;;;;;;;;;;;;;;;5.65;60.58;101583.88;5336240;32;34899;-75
2024/01/24 05:25:02;;;;;;;;;;;;;;;5.50;60.91;101584.75;5341808;32;35542;-71
2024/01/24 05:28:05;;;;;;;;;;;;;;;5.60;60.42;101578.69;5362616;32;34597;-71
2024/01/24 05:31:07;;;;;;;;;;;;;;;5.52;60.67;101575.19;5350893;32;34302;-71
2024/01/24 05:34:09;;;;;;;;;;;;;;;5.51;60.81;101575.19;5362793;32;34582;-75
2024/01/24 05:37:12;;;;;;;;;;;;;;;5.32;61.82;101569.06;5365487;32;35133;-76
2024/01/24 05:40:14;;;;;;;;;;;;;;;5.58;61.12;101572.56;5357936;32;35239;-74
2024/01/24 05:43:16;;;;;;;;;;;;;;;5.65;60.60;101573.44;5368157;32;34804;-71
2024/01/24 05:46:18;;;;;;;;;;;;;;;5.64;60.52;101575.19;5367510;32;34923;-76
2024/01/24 05:49:21;;;;;;;;;;;;;;;5.62;60.47;101574.31;5373315;32;34784;-71
2024/01/24 05:52:23;;;;;;;;;;;;;;;5.43;61.15;101565.63;5354471;32;34692;-71
2024/01/24 05:55:25;;;;;;;;;;;;;;;5.35;61.79;101551.72;5372537;32;34656;-77
2024/01/24 05:58:27;;;;;;;;;;;;;;;5.77;60.67;101542.13;5366765;32;35410;-76
2024/01/24 06:01:29;;;;;;;;;;;;;;;5.57;61.03;101528.25;5369637;32;34805;-70
2024/01/24 06:04:31;;;;;;;;;;;;;;;5.77;60.46;101542.13;5371966;32;35487;-75
2024/01/24 06:07:34;;;;;;;;;;;;;;;5.82;60.47;101539.53;5366346;32;34436;-77
2024/01/24 06:10:36;;;;;;;;;;;;;;;5.74;59.64;101541.28;5357371;32;34658;-70
2024/01/24 06:13:40;;;;;;;;;;;;;;;5.61;60.23;101543.91;5354838;32;34984;-78
2024/01/24 06:16:43;;;;;;;;;;;;;;;5.83;60.36;101543.88;5374383;32;34880;-71
2024/01/24 06:19:44;;;;;;;;;;;;;;;5.76;60.57;101544.75;5366282;32;35010;-70
2024/01/24 06:22:49;;;;;;;;;;;;;;;4.96;61.85;101549.91;5356852;32;34676;-77
2024/01/24 06:25:51;;;;;;;;;;;;;;;5.39;61.58;101550.81;5355998;32;34712;-73
2024/01/24 06:28:53;;;;;;;;;;;;;;;5.88;59.72;101545.59;5348691;32;34970;-71
2024/01/24 06:31:55;;;;;;;;;;;;;;;5.27;60.79;101536.91;5370265;32;34272;-76
2024/01/24 06:34:58;;;;;;;;;;;;;;;3.91;65.37;101532.06;5367705;32;35763;-72
2024/01/24 06:38:01;;;;;;;;;;;;;;;4.86;63.75;101524.69;5367260;32;35359;-70
2024/01/24 06:41:03;;;;;;;;;;;;;;;5.10;62.79;101510.84;5353620;32;34200;-72
2024/01/24 06:44:05;;;;;;;;;;;;;;;4.80;63.08;101503.84;5361092;32;33924;-75
2024/01/24 06:47:07;;;;;;;;;;;;;;;5.59;60.79;101485.63;5372897;32;34613;-74
2024/01/24 06:50:13;;;;;;;;;;;;;;;5.25;61.31;101487.37;5368180;32;35128;-69
2024/01/24 06:53:16;;;;;;;;;;;;;;;5.28;62.01;101478.69;5370923;32;34971;-67
2024/01/24 06:56:18;;;;;;;;;;;;;;;4.89;62.15;101473.47;5366291;32;34990;-67
2024/01/24 06:59:20;;;;;;;;;;;;;;;5.60;60.57;101470.84;5352621;32;34169;-65
2024/01/24 07:02:22;;;;;;;;;;;;;;;5.27;61.73;101475.22;5367680;32;35103;-76
2024/01/24 07:05:24;;;;;;;;;;;;;;;5.21;61.97;101467.41;5353384;32;35381;-68
2024/01/24 07:08:27;;;;;;;;;;;;;;;5.20;61.52;101467.41;5368853;32;34213;-67
2024/01/24 07:11:30;;;;;;;;;;;;;;;5.40;61.70;101455.22;5353196;32;34977;-74
2024/01/24 07:14:33;;;;;;;;;;;;;;;4.90;63.49;101456.12;5358002;32;34115;-75
2024/01/24 07:17:36;;;;;;;;;;;;;;;5.19;62.22;101450.91;5369411;32;35059;-66
2024/01/24 07:20:38;;;;;;;;;;;;;;;5.25;62.57;101443.09;5355351;32;35989;-68
2024/01/24 07:23:40;;;;;;;;;;;;;;;4.84;63.48;101430.91;5370722;32;34131;-75
2024/01/24 07:26:43;;;;;;;;;;;;;;;5.49;62.03;101447.41;5366512;32;35015;-70
2024/01/24 07:29:45;;;;;;;;;;;;;;;5.50;61.34;101430.03;5347827;32;33734;-75
2024/01/24 07:32:51;;;;;;;;;;;;;;;5.23;61.76;101431.78;5369947;32;34384;-66
2024/01/24 07:35:53;;;;;;;;;;;;;;;5.28;62.23;101424.84;5355555;32;34243;-75
2024/01/24 07:38:57;;;;;;;;;;;;;;;5.18;62.93;101428.31;5355416;32;34390;-68
2024/01/24 07:42:02;;;;;;;;;;;;;;;5.25;62.95;101418.75;5361689;32;35190;-64
2024/01/24 07:45:04;;;;;;;;;;;;;;;5.31;63.32;101422.22;5355124;32;34740;-75
2024/01/24 07:48:14;;;;;;;;;;;;;;;4.91;63.12;101415.28;5370731;32;33484;-79
2024/01/24 07:51:20;;;;;;;;;;;;;;;6.01;60.69;101410.78;5363768;32;34678;-78
2024/01/24 07:54:22;;;;;;;;;;;;;;;5.95;60.89;101409.06;5359392;32;34400;-70
2024/01/24 07:57:29;;;;;;;;;;;;;;;5.75;61.27;101408.22;5359599;32;37138;-78
2024/01/24 08:00:31;;;;;;;;;;;;;;;5.81;61.27;101404.75;5356679;32;35695;-79
2024/01/24 08:03:33;;;;;;;;;;;;;;;5.60;62.10;101403.03;5370922;32;33510;-72
2024/01/24 08:06:36;;;;;;;;;;;;;;;5.75;61.66;101405.63;5352275;32;34413;-71
2024/01/24 08:09:40;;;;;;;;;;;;;;;5.38;62.11;101403.09;5368870;32;34378;-86
2024/01/24 08:12:43;;;;;;;;;;;;;;;5.98;61.01;101388.16;5360666;32;34922;-74
2024/01/24 08:15:46;;;;;;;;;;;;;;;5.86;61.51;101393.41;5364972;32;34236;-72
2024/01/24 08:18:49;;;;;;;;;;;;;;;6.02;61.26;101427.31;5370687;32;36134;-69
2024/01/24 08:21:53;;;;;;;;;;;;;;;6.20;60.98;101403.75;5351343;32;36956;-72
2024/01/24 08:24:55;;;;;;;;;;;;;;;5.95;61.73;101403.84;5366223;32;34298;-71
2024/01/24 08:27:57;;;;;;;;;;;;;;;5.97;61.36;101394.25;5356500;32;34607;-72
2024/01/24 08:31:00;;;;;;;;;;;;;;;5.08;64.42;101398.78;5344705;32;35020;-69
2024/01/24 08:34:02;;;;;;;;;;;;;;;5.82;63.09;101404.72;5356262;32;34211;-69
2024/01/24 08:37:05;;;;;;;;;;;;;;;5.86;62.74;101395.12;5368519;32;35179;-69
2024/01/24 08:40:11;;;;;;;;;;;;;;;5.97;62.67;101396.00;5369087;32;36386;-75
2024/01/24 08:43:18;;;;;;;;;;;;;;;6.03;63.27;101389.87;5368114;32;34937;-71
2024/01/24 08:46:20;;;;;;;;;;;;;;;6.46;61.46;101365.28;5368180;32;33893;-77
2024/01/24 08:49:22;;;;;;;;;;;;;;;5.90;63.40;101373.38;5373122;32;34982;-70
2024/01/24 08:52:25;;;;;;;;;;;;;;;6.33;62.35;101354.94;5359566;32;35172;-66
2024/01/24 08:55:27;;;;;;;;;;;;;;;6.58;61.82;101360.88;5359998;32;34125;-75
2024/01/24 08:58:30;;;;;;;;;;;;;;;6.51;61.81;101371.34;5363208;32;34975;-66
2024/01/24 09:01:32;;;;;;;;;;;;;;;6.43;61.60;101347.00;5360495;32;33996;-75
2024/01/24 09:04:36;;;;;;;;;;;;;;;6.68;61.56;101336.38;5343546;32;33996;-83
2024/01/24 09:07:39;;;;;;;;;;;;;;;6.75;61.70;101351.13;5367741;32;35068;-69
2024/01/24 09:10:41;;;;;;;;;;;;;;;6.41;63.17;101347.91;5366798;32;34905;-68
2024/01/24 09:13:43;;;;;;;;;;;;;;;5.82;66.19;101352.56;5364846;32;35552;-71
2024/01/24 09:16:46;;;;;;;;;;;;;;;6.03;65.80;101333.34;5375076;32;34344;-79
2024/01/24 09:19:48;;;;;;;;;;;;;;;5.89;66.15;101316.88;5353172;32;35689;-70
2024/01/24 09:22:51;;;;;;;;;;;;;;;6.18;65.18;101320.22;5371256;32;35495;-69
2024/01/24 09:25:53;;;;;;;;;;;;;;;5.84;66.47;101323.84;5357893;32;34889;-69
2024/01/24 09:28:55;;;;;;;;;;;;;;;5.21;68.49;101305.81;5343929;32;35267;-69
2024/01/24 09:31:57;;;;;;;;;;;;;;;5.05;70.89;101299.78;5352750;32;34350;-88
2024/01/24 09:34:59;;;;;;;;;;;;;;;5.39;69.64;101303.16;5370460;32;34366;-69
2024/01/24 09:38:02;;;;;;;;;;;;;;;5.69;67.77;101288.28;5373932;32;34692;-88
2024/01/24 09:41:05;;;;;;;;;;;;;;;5.29;69.67;101285.81;5352559;32;35531;-72
2024/01/24 09:44:09;;;;;;;;;;;;;;;5.48;68.94;101304.00;5354314;32;34207;-82
2024/01/24 09:47:11;;;;;;;;;;;;;;;5.37;68.63;101276.22;5354163;32;34222;-69
2024/01/24 09:50:13;;;;;;;;;;;;;;;5.06;70.22;101265.03;5348315;32;35158;-81
2024/01/24 09:53:17;;;;;;;;;;;;;;;4.72;71.30;101266.84;5355161;32;34734;-68
2024/01/24 09:56:19;;;;;;;;;;;;;;;4.65;71.23;101252.09;5365921;32;34653;-75
2024/01/24 09:59:21;;;;;;;;;;;;;;;4.96;70.35;101254.63;5369262;32;35040;-76
2024/01/24 10:02:27;;;;;;;;;;;;;;;4.98;70.59;101237.25;5365625;32;34813;-67
2024/01/24 10:05:29;;;;;;;;;;;;;;;4.93;70.44;101234.66;5352638;32;33983;-81
2024/01/24 10:08:31;;;;;;;;;;;;;;;5.09;69.98;101199.87;5355389;32;35338;-68
2024/01/24 10:11:33;;;;;;;;;;;;;;;5.13;69.30;101198.97;5370994;32;34161;-66
2024/01/24 10:14:35;;;;;;;;;;;;;;;4.94;70.85;101191.25;5369141;32;34285;-82
2024/01/24 10:17:41;;;;;;;;;;;;;;;5.31;69.93;101164.16;5369818;32;34547;-74
2024/01/24 10:20:45;;;;;;;;;;;;;;;5.20;69.28;101162.47;5362867;32;34285;-68
2024/01/24 10:23:59;;;;;;;;;;;;;;;4.78;70.90;101144.41;5362205;32;33236;-74
2024/01/24 10:27:01;;;;;;;;;;;;;;;4.66;72.07;101140.97;5371488;32;37327;-69
2024/01/24 10:30:12;;;;;;;;;;;;;;;5.00;71.33;101121.75;5357684;32;34716;-68
2024/01/24 10:33:15;;;;;;;;;;;;;;;5.26;70.24;101125.97;5353796;32;35543;-77
2024/01/24 10:36:23;;;;;;;;;;;;;;;5.47;69.36;101130.16;5375426;32;34890;-83
2024/01/24 10:39:34;;;;;;;;;;;;;;;5.52;68.50;101124.06;5355773;32;36795;-75
2024/01/24 10:42:36;;;;;;;;;;;;;;;5.72;67.39;101127.38;5350587;32;35990;-67
2024/01/24 10:45:43;;;;;;;;;;;;;;;5.71;67.74;101130.88;5374628;32;34411;-66
2024/01/24 10:48:45;;;;;;;;;;;;;;;5.74;68.37;101122.19;5359672;32;34813;-68
2024/01/24 10:51:48;;;;;;;;;;;;;;;6.23;66.62;101112.19;5358622;32;34365;-65
2024/01/24 10:54:50;;;;;;;;;;;;;;;6.87;64.53;101100.16;5366534;32;34961;-66
2024/01/24 10:57:52;;;;;;;;;;;;;;;7.21;62.79;101086.66;5372902;32;34745;-73
2024/01/24 11:00:55;;;;;;;;;;;;;;;7.02;62.60;101075.59;5358556;32;35404;-68
2024/01/24 11:03:57;;;;;;;;;;;;;;;7.27;62.42;101049.94;5367131;32;34851;-67
2024/01/24 11:07:02;;;;;;;;;;;;;;;6.93;62.97;101041.75;5360964;32;35170;-88
2024/01/24 11:10:31;;;;;;;;;;;;;;;6.84;63.01;101024.44;5369174;32;34799;-82
2024/01/24 11:13:34;;;;;;;;;;;;;;;6.75;62.70;101016.72;5368607;32;33736;-68
2024/01/24 11:16:41;;;;;;;;;;;;;;;7.53;60.07;100997.22;5351546;32;34372;-78
2024/01/24 11:19:43;;;;;;;;;;;;;;;6.62;62.01;100995.12;5359106;32;35803;-79
2024/01/24 11:22:46;;;;;;;;;;;;;;;7.25;61.39;100996.81;5359600;32;34369;-76
2024/01/24 11:25:50;;;;;;;;;;;;;;;6.44;63.86;100993.63;5355326;32;34412;-79
2024/01/24 11:28:54;;;;;;;;;;;;;;;6.86;62.72;100990.44;5357647;32;34789;-68
2024/01/24 11:31:56;;;;;;;;;;;;;;;7.66;60.13;100980.44;5353372;32;34700;-65
2024/01/24 11:35:24;;;;;;;;;;;;;;;7.73;59.63;100976.84;5369952;32;34310;-69
2024/01/24 11:38:28;;;;;;;;;;;;;;;8.06;58.85;100962.25;5357004;32;34499;-79
2024/01/24 11:41:33;;;;;;;;;;;;;;;7.87;57.68;100922.50;5361237;32;32364;-77
2024/01/24 11:44:36;;;;;;;;;;;;;;;7.87;58.95;100885.00;5357330;32;35527;-66
2024/01/24 11:47:43;;;;;;;;;;;;;;;7.59;58.63;100918.66;5368209;32;34206;-78
2024/01/24 11:50:53;;;;;;;;;;;;;;;7.78;58.89;100921.78;5354916;32;34087;-77
2024/01/24 11:53:59;;;;;;;;;;;;;;;7.65;59.20;100949.06;5355470;32;35111;-75
2024/01/24 11:57:04;;;;;;;;;;;;;;;7.04;61.15;100958.81;5369372;32;35542;-76
2024/01/24 12:00:06;;;;;;;;;;;;;;;7.58;58.19;100946.56;5367209;32;34243;-77
2024/01/24 12:03:15;;;;;;;;;;;;;;;8.31;56.80;100964.41;5368578;32;34259;-78
2024/01/24 12:06:21;;;;;;;;;;;;;;;8.58;55.75;100962.97;5352840;32;34711;-79
2024/01/24 12:09:24;;;;;;;;;;;;;;;8.34;56.27;100962.56;5358565;32;34761;-79
2024/01/24 12:12:27;;;;;;;;;;;;;;;8.65;55.22;100956.69;5367118;32;35466;-78
2024/01/24 12:15:29;;;;;;;;;;;;;;;8.58;54.95;100937.63;5356854;32;34375;-78
2024/01/24 12:18:32;;;;;;;;;;;;;;;8.34;55.67;100959.06;5356051;32;33589;-69
2024/01/24 12:21:35;;;;;;;;;;;;;;;8.54;55.26;100963.94;5359819;32;34097;-68
2024/01/24 12:24:38;;;;;;;;;;;;;;;8.03;56.65;100969.28;5368827;32;34076;-76
2024/01/24 12:27:40;;;;;;;;;;;;;;;7.69;59.10;100954.22;5374694;32;35894;-76
2024/01/24 12:30:43;;;;;;;;;;;;;;;7.76;59.89;100947.12;5355989;32;36568;-78
2024/01/24 12:33:46;;;;;;;;;;;;;;;8.49;56.12;100953.53;5358851;32;34410;-70
2024/01/24 12:36:49;;;;;;;;;;;;;;;7.62;58.53;100954.38;5358681;32;34294;-71
2024/01/24 12:39:56;;;;;;;;;;;;;;;7.53;59.60;100940.53;5358582;32;35471;-63
2024/01/24 12:42:58;;;;;;;;;;;;;;;7.68;59.42;100943.81;5370993;32;35518;-70
2024/01/24 12:46:07;;;;;;;;;;;;;;;7.29;61.03;100930.53;5355051;32;34352;-69
2024/01/24 12:49:11;;;;;;;;;;;;;;;7.80;60.31;100922.66;5367989;32;34255;-70
2024/01/24 12:52:14;;;;;;;;;;;;;;;7.63;60.13;100912.47;5364280;32;34425;-71
2024/01/24 12:55:16;;;;;;;;;;;;;;;8.53;56.92;100908.03;5358828;32;35486;-72
2024/01/24 12:58:19;;;;;;;;;;;;;;;8.56;56.82;100894.00;5348775;32;34701;-73
2024/01/24 13:01:21;;;;;;;;;;;;;;;8.02;59.38;100878.56;5356578;32;34375;-67
2024/01/24 13:04:23;;;;;;;;;;;;;;;7.78;60.03;100875.53;5363410;32;34365;-77
2024/01/24 13:07:26;;;;;;;;;;;;;;;7.99;59.82;100871.66;5370026;32;33414;-72
2024/01/24 13:10:28;;;;;;;;;;;;;;;8.34;59.20;100876.12;5343530;32;34140;-72
2024/01/24 13:13:30;;;;;;;;;;;;;;;8.43;59.40;100879.47;5354105;32;34319;-75
2024/01/24 13:16:34;;;;;;;;;;;;;;;8.36;59.60;100876.12;5357965;32;34165;-81
2024/01/24 13:19:36;;;;;;;;;;;;;;;8.33;59.30;100889.25;5375718;32;34075;-70
2024/01/24 13:22:38;;;;;;;;;;;;;;;8.29;59.42;100908.53;5357196;32;35433;-67
2024/01/24 13:25:40;;;;;;;;;;;;;;;7.75;61.41;100900.94;5373304;32;35547;-65
2024/01/24 13:28:42;;;;;;;;;;;;;;;7.98;61.16;100876.91;5355824;32;35819;-71
2024/01/24 13:31:44;;;;;;;;;;;;;;;7.16;63.99;100880.22;5375347;32;37654;-75
2024/01/24 13:34:49;;;;;;;;;;;;;;;7.80;61.14;100863.31;5359466;32;35577;-74
2024/01/24 13:37:52;;;;;;;;;;;;;;;6.83;64.11;100858.13;5371185;32;35431;-71
2024/01/24 13:40:54;;;;;;;;;;;;;;;6.14;67.39;100842.59;5359342;32;35480;-72
2024/01/24 13:43:56;;;;;;;;;;;;;;;6.35;67.99;100842.28;5365865;32;34396;-75
2024/01/24 13:47:00;;;;;;;;;;;;;;;5.93;68.93;100836.78;5341912;32;38490;-65
2024/01/24 13:50:03;;;;;;;;;;;;;;;6.03;69.50;100837.53;5374848;32;34528;-73
2024/01/24 13:53:06;;;;;;;;;;;;;;;6.10;70.05;100844.38;5372830;32;34508;-72
2024/01/24 13:56:08;;;;;;;;;;;;;;;6.95;67.87;100838.72;5373825;32;34287;-63
2024/01/24 13:59:12;;;;;;;;;;;;;;;6.74;67.08;100832.12;5368398;32;34339;-80
2024/01/24 14:02:14;;;;;;;;;;;;;;;7.40;65.45;100810.03;5369830;32;34561;-69
2024/01/24 14:05:16;;;;;;;;;;;;;;;7.53;64.50;100807.16;5370277;32;34191;-67
2024/01/24 14:08:19;;;;;;;;;;;;;;;7.51;64.58;100793.25;5373395;32;35885;-79
2024/01/24 14:11:21;;;;;;;;;;;;;;;7.67;63.77;100785.09;5359733;32;34814;-76
2024/01/24 14:14:24;;;;;;;;;;;;;;;8.00;62.50;100792.22;5354810;32;35961;-68
2024/01/24 14:17:32;;;;;;;;;;;;;;;7.54;64.48;100808.03;5360679;32;34553;-84
2024/01/24 14:20:34;;;;;;;;;;;;;;;7.95;62.79;100781.00;5373962;32;35426;-82
2024/01/24 14:23:40;;;;;;;;;;;;;;;7.72;63.44;100776.25;5368745;32;34407;-77
2024/01/24 14:26:41;;;;;;;;;;;;;;;7.88;63.39;100782.87;5352957;32;34340;-71
2024/01/24 14:29:43;;;;;;;;;;;;;;;7.73;63.73;100779.72;5357138;32;35750;-72
2024/01/24 14:32:45;;;;;;;;;;;;;;;7.63;63.20;100779.06;5368419;32;34388;-73
2024/01/24 14:35:52;;;;;;;;;;;;;;;7.69;63.85;100778.06;5374741;32;35584;-71
2024/01/24 14:38:54;;;;;;;;;;;;;;;7.01;64.89;100775.91;5358880;32;35592;-69
2024/01/24 14:41:56;;;;;;;;;;;;;;;8.01;62.24;100743.34;5372371;32;35646;-81
2024/01/24 14:45:00;;;;;;;;;;;;;;;8.19;61.70;100755.16;5359848;32;34231;-70
2024/01/24 14:48:02;;;;;;;;;;;;;;;7.78;63.03;100744.72;5362559;32;34941;-87
2024/01/24 14:51:05;;;;;;;;;;;;;;;7.03;65.68;100750.62;5353522;32;34066;-78
2024/01/24 14:54:07;;;;;;;;;;;;;;;7.86;63.30;100758.50;5359443;32;35526;-80
2024/01/24 14:57:10;;;;;;;;;;;;;;;7.48;64.82;100732.31;5362647;32;34792;-67
2024/01/24 15:00:19;;;;;;;;;;;;;;;7.22;65.88;100731.09;5359590;32;34220;-70
2024/01/24 15:03:21;;;;;;;;;;;;;;;7.12;66.71;100744.34;5358607;32;34223;-74
2024/01/24 15:06:27;;;;;;;;;;;;;;;6.52;69.76;100740.22;5363747;32;34225;-73
2024/01/24 15:09:30;;;;;;;;;;;;;;;7.11;68.61;100722.59;5357972;32;35050;-69
2024/01/24 15:12:36;;;;;;;;;;;;;;;7.45;67.05;100725.37;5365604;32;35514;-84
2024/01/24 15:15:38;;;;;;;;;;;;;;;7.47;65.38;100709.62;5359693;32;34467;-75
2024/01/24 15:18:41;;;;;;;;;;;;;;;6.63;68.80;100700.84;5369009;32;35092;-72
2024/01/24 15:21:45;;;;;;;;;;;;;;;7.50;65.77;100712.22;5355672;32;35535;-72
2024/01/24 15:24:48;;;;;;;;;;;;;;;7.47;64.26;100697.44;5366594;32;34569;-70
2024/01/24 15:27:51;;;;;;;;;;;;;;;7.27;64.71;100700.47;5355614;32;34376;-78
2024/01/24 15:30:53;;;;;;;;;;;;;;;7.11;65.16;100691.22;5369510;32;35172;-79
2024/01/24 15:33:56;;;;;;;;;;;;;;;7.18;65.22;100695.44;5361165;32;34230;-77
2024/01/24 15:36:58;;;;;;;;;;;;;;;7.52;64.05;100711.28;5365885;32;34591;-72
2024/01/24 15:40:02;;;;;;;;;;;;;;;7.06;65.31;100711.34;5352337;32;35552;-72
2024/01/24 15:43:10;;;;;;;;;;;;;;;7.40;64.30;100701.06;5358065;32;34276;-71
2024/01/24 15:46:12;;;;;;;;;;;;;;;7.33;64.82;100696.84;5358521;32;37089;-83
2024/01/24 15:49:15;;;;;;;;;;;;;;;7.37;64.19;100698.53;5374326;32;34828;-70
2024/01/24 15:52:17;;;;;;;;;;;;;;;7.92;62.34;100694.72;5368836;32;34656;-68
2024/01/24 15:55:22;;;;;;;;;;;;;;;8.31;60.79;100682.41;5355946;32;34528;-73